createdAt,value
2023-04-02T00:01:27.277Z,99784.97
2023-04-02T00:06:40.534Z,99782.38
2023-04-02T00:11:46.059Z,99777.09
2023-04-02T00:16:48.593Z,99766.59
2023-04-02T00:21:52.637Z,99764.38
2023-04-02T00:26:56.308Z,99760.75
2023-04-02T00:32:00.490Z,99742.41
2023-04-02T00:37:03.379Z,99757.97
2023-04-02T00:42:06.776Z,99761.47
2023-04-02T00:47:19.195Z,99740.81
2023-04-02T00:52:25.608Z,99738.94
2023-04-02T00:57:28.544Z,99732.59
2023-04-02T01:02:38.720Z,99728.44
2023-04-02T01:08:31.582Z,99739.34
2023-04-02T01:14:02.807Z,99745.66
2023-04-02T01:19:14.086Z,99744.72
2023-04-02T01:24:16.384Z,99732.63
2023-04-02T01:29:35.586Z,99744.00
2023-04-02T01:34:39.200Z,99729.25
2023-04-02T01:39:55.357Z,99743.94
2023-04-02T01:45:05.201Z,99748.53
2023-04-02T01:50:13.360Z,99754.75
2023-04-02T01:55:21.751Z,99745.59
2023-04-02T02:00:25.016Z,99727.16
2023-04-02T02:05:28.023Z,99737.72
2023-04-02T02:10:36.821Z,99746.91
2023-04-02T02:15:39.511Z,99748.41
2023-04-02T02:20:42.551Z,99730.34
2023-04-02T02:25:47.293Z,99734.22
2023-04-02T02:30:57.963Z,99748.28
2023-04-02T02:36:02.428Z,99765.94
2023-04-02T02:41:18.360Z,99758.03
2023-04-02T02:46:24.110Z,99763.59
2023-04-02T02:52:15.480Z,99774.97
2023-04-02T02:57:29.122Z,99782.09
2023-04-02T03:02:35.616Z,99770.69
2023-04-02T03:07:38.692Z,99766.28
2023-04-02T03:13:23.692Z,99780.94
2023-04-02T03:18:44.021Z,99780.88
2023-04-02T03:23:57.973Z,99768.69
2023-04-02T03:29:15.816Z,99787.09
2023-04-02T03:34:27.182Z,99780.88
2023-04-02T03:39:44.140Z,99779.97
2023-04-02T03:44:52.931Z,99777.13
2023-04-02T03:50:01.711Z,99792.44
2023-04-02T03:55:30.877Z,99806.19
2023-04-02T04:00:58.260Z,99802.88
2023-04-02T04:06:10.915Z,99816.44
2023-04-02T04:11:19.006Z,99811.00
2023-04-02T04:16:30.376Z,99805.16
2023-04-02T04:21:38.613Z,99776.00
2023-04-02T04:26:49.850Z,99822.91
2023-04-02T04:31:55.964Z,99802.38
2023-04-02T04:37:02.498Z,99808.13
2023-04-02T04:42:07.736Z,99795.19
2023-04-02T04:47:17.874Z,99836.59
2023-04-02T04:52:27.233Z,99828.41
2023-04-02T04:57:38.727Z,99826.59
2023-04-02T05:03:06.432Z,99825.94
2023-04-02T05:08:31.248Z,99817.72
2023-04-02T05:13:58.978Z,99829.00
2023-04-02T05:19:11.011Z,99834.69
2023-04-02T05:24:28.215Z,99837.63
2023-04-02T05:29:36.623Z,99824.34
2023-04-02T05:34:41.991Z,99812.97
2023-04-02T05:39:46.547Z,99848.22
2023-04-02T05:45:44.096Z,99842.19
2023-04-02T05:50:52.266Z,99862.16
2023-04-02T05:56:12.990Z,99864.19
2023-04-02T06:01:33.980Z,99864.94
2023-04-02T06:06:42.921Z,99872.94
2023-04-02T06:11:50.565Z,99869.41
2023-04-02T06:16:52.827Z,99856.09
2023-04-02T06:22:01.106Z,99884.72
2023-04-02T06:27:08.801Z,99879.38
2023-04-02T06:32:13.382Z,99879.47
2023-04-02T06:37:28.355Z,99900.69
2023-04-02T06:42:40.344Z,99869.78
2023-04-02T06:47:47.468Z,99919.66
2023-04-02T06:52:53.881Z,99903.34
2023-04-02T06:57:56.429Z,99923.75
2023-04-02T07:03:02.599Z,99934.66
2023-04-02T07:08:04.937Z,99917.41
2023-04-02T07:13:07.300Z,99956.31
2023-04-02T07:18:26.816Z,99948.88
2023-04-02T07:23:29.055Z,99950.50
2023-04-02T07:28:31.417Z,99972.63
2023-04-02T07:33:33.500Z,99969.19
2023-04-02T07:38:35.753Z,99976.41
2023-04-02T07:43:38.776Z,99984.47
2023-04-02T07:48:41.118Z,100001.41
2023-04-02T07:53:43.335Z,99990.75
2023-04-02T07:58:46.851Z,100001.31
2023-04-02T08:03:50.811Z,100029.56
2023-04-02T08:08:54.570Z,100033.63
2023-04-02T08:13:56.722Z,100038.34
2023-04-02T08:18:59.185Z,100018.53
2023-04-02T08:24:01.344Z,100032.94
2023-04-02T08:29:04.584Z,100033.84
2023-04-02T08:34:07.252Z,100018.72
2023-04-02T08:39:13.781Z,100003.31
2023-04-02T08:44:47.924Z,100000.00
2023-04-02T08:49:58.761Z,99992.09
2023-04-02T08:55:03.592Z,99976.56
2023-04-02T09:00:37.413Z,99983.56
2023-04-02T09:05:43.708Z,99980.25
2023-04-02T09:11:09.681Z,99980.72
2023-04-02T09:16:14.995Z,99987.44
2023-04-02T09:21:36.802Z,99956.75
2023-04-02T09:26:38.988Z,99957.34
2023-04-02T09:31:46.861Z,99950.47
2023-04-02T09:36:49.012Z,99949.50
2023-04-02T09:42:02.872Z,99933.22
2023-04-02T09:47:25.389Z,99914.81
2023-04-02T09:52:28.885Z,99906.81
2023-04-02T09:57:31.582Z,99926.94
2023-04-02T10:02:33.904Z,99934.25
2023-04-02T10:07:42.542Z,99925.47
2023-04-02T10:12:48.405Z,99908.59
2023-04-02T10:18:16.483Z,99906.97
2023-04-02T10:23:20.145Z,99915.34
2023-04-02T10:28:39.697Z,99926.19
2023-04-02T10:33:47.445Z,99912.03
2023-04-02T10:39:08.834Z,99885.69
2023-04-02T10:44:48.105Z,99876.97
2023-04-02T10:50:24.799Z,99879.72
2023-04-02T10:55:32.638Z,99879.66
2023-04-02T11:00:40.979Z,99871.25
2023-04-02T11:05:45.563Z,99866.22
2023-04-02T11:11:00.025Z,99851.66
2023-04-02T11:16:02.574Z,99855.41
2023-04-02T11:21:55.088Z,99866.50
2023-04-02T11:27:16.369Z,99845.06
2023-04-02T11:32:21.536Z,99861.03
2023-04-02T11:37:44.524Z,99852.53
2023-04-02T11:42:51.342Z,99840.06
2023-04-02T11:48:04.116Z,99845.56
2023-04-02T11:53:12.086Z,99830.56
2023-04-02T11:58:44.979Z,99818.88
2023-04-02T12:04:11.773Z,99810.91
2023-04-02T12:09:24.289Z,99805.44
2023-04-02T12:14:44.015Z,99787.25
2023-04-02T12:19:55.084Z,99766.91
2023-04-02T12:25:04.871Z,99744.94
2023-04-02T12:30:18.141Z,99762.75
2023-04-02T12:35:36.846Z,99773.69
2023-04-02T12:40:39.340Z,99761.34
2023-04-02T12:45:41.530Z,99749.03
2023-04-02T12:50:43.829Z,99736.44
2023-04-02T12:55:49.073Z,99727.31
2023-04-02T13:00:51.407Z,99731.97
2023-04-02T13:05:55.804Z,99744.72
2023-04-02T13:11:06.402Z,99745.25
2023-04-02T13:16:18.019Z,99725.06
2023-04-02T13:21:20.217Z,99727.09
2023-04-02T13:26:28.828Z,99713.66
2023-04-02T13:31:32.946Z,99711.84
2023-04-02T13:36:35.428Z,99704.34
2023-04-02T13:41:45.627Z,99707.25
2023-04-02T13:46:47.978Z,99702.63
2023-04-02T13:52:03.412Z,99700.06
2023-04-02T13:57:06.338Z,99703.31
2023-04-02T14:02:26.828Z,99700.59
2023-04-02T14:07:47.342Z,99686.31
2023-04-02T14:12:57.999Z,99703.03
2023-04-02T14:18:29.386Z,99692.38
2023-04-02T14:23:45.929Z,99683.69
2023-04-02T14:29:01.971Z,99677.56
2023-04-02T14:34:25.402Z,99684.25
2023-04-02T14:39:47.162Z,99684.34
2023-04-02T14:45:11.426Z,99679.22
2023-04-02T14:50:20.008Z,99660.69
2023-04-02T14:55:44.349Z,99675.31
2023-04-02T15:00:58.193Z,99679.09
2023-04-02T15:06:11.072Z,99677.91
2023-04-02T15:11:13.370Z,99675.38
2023-04-02T15:16:23.146Z,99672.41
2023-04-02T15:22:01.100Z,99667.47
2023-04-02T15:27:25.362Z,99671.69
2023-04-02T15:32:38.058Z,99681.06
2023-04-02T15:37:48.984Z,99659.75
2023-04-02T15:43:06.491Z,99682.75
2023-04-02T15:48:59.478Z,99683.28
2023-04-02T15:54:07.211Z,99694.50
2023-04-02T15:59:27.540Z,99692.53
2023-04-02T16:04:48.327Z,99686.50
2023-04-02T16:10:10.211Z,99695.25
2023-04-02T16:15:24.030Z,99682.53
2023-04-02T16:20:37.380Z,99685.56
2023-04-02T16:26:06.959Z,99697.69
2023-04-02T16:31:14.612Z,99716.41
2023-04-02T16:36:26.029Z,99722.59
2023-04-02T16:41:34.002Z,99740.44
2023-04-02T16:46:54.706Z,99725.06
2023-04-02T16:52:23.042Z,99735.44
2023-04-02T16:57:30.726Z,99728.38
2023-04-02T17:02:51.283Z,99730.78
2023-04-02T17:08:28.337Z,99742.19
2023-04-02T17:13:47.362Z,99753.28
2023-04-02T17:18:52.707Z,99737.09
2023-04-02T17:23:58.363Z,99766.69
2023-04-02T17:29:06.485Z,99757.56
2023-04-02T17:34:17.343Z,99755.03
2023-04-02T17:39:35.990Z,99755.44
2023-04-02T17:44:59.321Z,99767.44
2023-04-02T17:50:29.634Z,99768.06
2023-04-02T17:55:41.104Z,99780.03
2023-04-02T18:01:03.350Z,99764.97
2023-04-02T18:06:15.833Z,99777.16
2023-04-02T18:11:39.169Z,99796.19
2023-04-02T18:17:08.863Z,99782.53
2023-04-02T18:22:27.947Z,99780.97
2023-04-02T18:27:56.132Z,99775.59
2023-04-02T18:33:15.081Z,99781.97
2023-04-02T18:38:19.981Z,99786.31
2023-04-02T18:43:27.690Z,99780.84
2023-04-02T18:48:55.104Z,99776.38
2023-04-02T18:54:20.686Z,99797.53
2023-04-02T18:59:48.297Z,99799.16
2023-04-02T19:05:27.650Z,99800.09
2023-04-02T19:10:34.528Z,99799.16
2023-04-02T19:16:12.928Z,99807.91
2023-04-02T19:21:26.986Z,99815.16
2023-04-02T19:26:51.607Z,99810.13
2023-04-02T19:32:10.595Z,99800.47
2023-04-02T19:37:38.776Z,99832.59
2023-04-02T19:42:48.804Z,99834.00
2023-04-02T19:47:51.023Z,99826.13
2023-04-02T19:52:53.475Z,99824.91
2023-04-02T19:58:08.482Z,99820.88
2023-04-02T20:03:18.130Z,99815.69
2023-04-02T20:08:20.900Z,99852.16
2023-04-02T20:13:23.123Z,99823.50
2023-04-02T20:18:27.158Z,99830.97
2023-04-02T20:23:29.340Z,99842.31
2023-04-02T20:28:32.162Z,99821.19
2023-04-02T20:33:34.681Z,99833.59
2023-04-02T20:38:37.841Z,99823.41
2023-04-02T20:43:41.326Z,99830.75
2023-04-02T20:48:43.906Z,99842.19
2023-04-02T20:53:46.890Z,99830.72
2023-04-02T20:58:49.392Z,99841.53
2023-04-02T21:03:56.812Z,99825.22
2023-04-02T21:08:59.322Z,99834.81
2023-04-02T21:14:01.934Z,99817.56
2023-04-02T21:19:07.545Z,99835.78
2023-04-02T21:24:10.065Z,99837.00
2023-04-02T21:29:12.695Z,99826.78
2023-04-02T21:34:17.161Z,99817.50
2023-04-02T21:39:22.013Z,99841.09
2023-04-02T21:44:25.032Z,99827.50
2023-04-02T21:49:28.196Z,99844.81
2023-04-02T21:54:30.729Z,99825.03
2023-04-02T21:59:32.848Z,99803.06
2023-04-02T22:04:34.999Z,99797.88
2023-04-02T22:09:37.099Z,99802.06
2023-04-02T22:14:39.201Z,99811.34
2023-04-02T22:19:41.356Z,99818.00
2023-04-02T22:24:43.525Z,99812.75
2023-04-02T22:29:45.679Z,99819.81
2023-04-02T22:34:47.870Z,99785.91
2023-04-02T22:39:49.979Z,99796.59
2023-04-02T22:44:52.058Z,99784.41
2023-04-02T22:49:54.189Z,99780.63
2023-04-02T22:54:56.417Z,99786.38
2023-04-02T22:59:58.606Z,99788.72
2023-04-02T23:05:00.965Z,99783.91
2023-04-02T23:10:04.606Z,99781.78
2023-04-02T23:15:08.665Z,99782.72
2023-04-02T23:20:12.624Z,99755.91
2023-04-02T23:25:14.887Z,99743.84
2023-04-02T23:30:17.124Z,99765.91
2023-04-02T23:35:19.294Z,99761.09
2023-04-02T23:40:21.518Z,99746.44
2023-04-02T23:45:23.724Z,99739.97
2023-04-02T23:50:26.330Z,99745.00
2023-04-02T23:55:28.455Z,99748.13
